Time;durP1;ratioP1;P1;durP2;ratioP2;P2;SDS_P1;SDS_P2;PMS_P1;PMS_P2;Temp;Humidity;BMP_temperature;BMP_pressure;BME280_temperature;BME280_humidity;BME280_pressure;Samples;Min_cycle;Max_cycle;Signal;HPM_P1;HPM_P2
2022/07/10 00:04:31;;;;;;;20.23;14.35;;;;;;;14.09;98.85;97508.25;10414117;28;19912;-57
2022/07/10 00:09:30;;;;;;;;;;;;;;;14.07;99.12;97507.44;10415079;28;20107;-57
2022/07/10 00:14:29;;;;;;;19.98;14.50;;;;;;;13.97;99.76;97496.31;10413711;28;20098;-57
2022/07/10 00:19:28;;;;;;;22.48;14.30;;;;;;;13.98;99.41;97500.63;10414509;28;20067;-57
2022/07/10 00:24:27;;;;;;;;;;;;;;;13.90;100.00;97492.94;10415093;28;20035;-57
2022/07/10 00:29:26;;;;;;;20.67;13.93;;;;;;;13.76;100.00;97495.81;10417338;28;20442;-57
2022/07/10 00:34:25;;;;;;;;;;;;;;;13.59;100.00;97478.75;10417633;28;20087;-57
2022/07/10 00:39:23;;;;;;;19.33;15.05;;;;;;;13.53;100.00;97488.34;10417081;28;19920;-56
2022/07/10 00:44:22;;;;;;;25.77;17.80;;;;;;;13.50;100.00;97471.91;10417121;28;20415;-56
2022/07/10 00:49:21;;;;;;;27.15;18.08;;;;;;;13.61;100.00;97466.53;10416488;28;20044;-56
2022/07/10 00:54:20;;;;;;;28.40;18.85;;;;;;;13.65;100.00;97456.03;10417000;28;20028;-56
2022/07/10 00:59:21;;;;;;;26.77;18.20;;;;;;;13.80;100.00;97461.84;10416442;28;20500;-56
2022/07/10 01:04:21;;;;;;;26.38;17.13;;;;;;;13.86;100.00;97449.53;10416250;28;20484;-57
2022/07/10 01:09:20;;;;;;;26.73;17.77;;;;;;;13.93;100.00;97461.59;10416651;28;20048;-56
2022/07/10 01:14:20;;;;;;;25.25;18.05;;;;;;;13.98;100.00;97461.50;10422283;28;20063;-57
2022/07/10 01:19:19;;;;;;;23.15;15.75;;;;;;;14.04;100.00;97452.72;10423771;28;20082;-57
2022/07/10 01:24:18;;;;;;;22.88;16.85;;;;;;;14.10;100.00;97458.66;10424049;28;20056;-56
2022/07/10 01:29:17;;;;;;;;;;;;;;;14.14;100.00;97451.63;10420373;28;20036;-56
2022/07/10 01:34:16;;;;;;;26.08;16.88;;;;;;;14.18;100.00;97451.53;10420370;28;19909;-56
2022/07/10 01:39:15;;;;;;;27.13;18.23;;;;;;;14.22;100.00;97436.69;10419932;28;20090;-57
2022/07/10 01:44:14;;;;;;;23.45;16.90;;;;;;;14.32;100.00;97439.97;10419559;28;20024;-57
2022/07/10 01:49:13;;;;;;;;;;;;;;;14.30;100.00;97436.50;10419671;28;20024;-57
2022/07/10 01:54:12;;;;;;;32.03;17.05;;;;;;;14.32;100.00;97440.81;10419344;28;19966;-57
2022/07/10 01:59:11;;;;;;;;;;;;;;;14.28;100.00;97446.97;10419315;28;20407;-57
2022/07/10 02:09:27;;;;;;;28.38;17.75;;;;;;;14.19;100.00;97442.84;10418639;28;20048;-57
2022/07/10 02:14:26;;;;;;;25.88;17.88;;;;;;;14.20;100.00;97441.94;10418988;28;20016;-57
2022/07/10 02:19:25;;;;;;;24.88;16.90;;;;;;;14.25;100.00;97436.59;10418520;28;20068;-57
2022/07/10 02:24:24;;;;;;;;;;;;;;;14.30;100.00;97444.34;10418128;28;20020;-57
2022/07/10 02:29:24;;;;;;;27.15;16.52;;;;;;;14.26;100.00;97429.63;10418282;28;19912;-57
2022/07/10 02:34:23;;;;;;;27.92;16.50;;;;;;;14.19;100.00;97442.84;10417597;28;20518;-57
2022/07/10 02:39:23;;;;;;;;;;;;;;;13.99;100.00;97443.22;10417823;28;20515;-57
2022/07/10 02:44:22;;;;;;;33.95;16.13;;;;;;;13.73;100.00;97445.47;10418056;28;19971;-57
2022/07/10 02:49:21;;;;;;;34.17;15.13;;;;;;;13.73;100.00;97450.69;10417207;28;20115;-57
2022/07/10 02:54:20;;;;;;;37.63;15.23;;;;;;;13.63;100.00;97455.19;10416802;28;20115;-56
2022/07/10 02:59:18;;;;;;;29.90;15.88;;;;;;;13.62;100.00;97447.41;10417007;28;20069;-57
2022/07/10 03:04:17;;;;;;;;;;;;;;;13.64;100.00;97453.47;10415669;28;20037;-57
2022/07/10 03:09:16;;;;;;;47.88;17.00;;;;;;;13.63;100.00;97449.13;10416149;28;19916;-57
2022/07/10 03:14:16;;;;;;;29.10;16.85;;;;;;;13.59;100.00;97447.47;10416744;28;20031;-56
2022/07/10 03:19:15;;;;;;;60.97;16.90;;;;;;;13.60;100.00;97451.78;10415815;28;20063;-56
2022/07/10 03:24:14;;;;;;;41.63;17.10;;;;;;;13.52;100.00;97452.75;10415758;28;20025;-56
2022/07/10 03:29:13;;;;;;;31.70;19.15;;;;;;;13.46;100.00;97433.75;10419851;28;20063;-57
2022/07/10 03:34:12;;;;;;;36.42;17.38;;;;;;;13.58;100.00;97446.59;10417787;28;20031;-57
2022/07/10 03:39:11;;;;;;;27.23;16.13;;;;;;;13.61;100.00;97443.94;10418440;28;20530;-57
2022/07/10 03:44:10;;;;;;;24.63;18.13;;;;;;;13.65;100.00;97439.53;10418958;28;20039;-57
2022/07/10 03:49:10;;;;;;;22.48;16.65;;;;;;;13.76;100.00;97434.97;10418767;28;20131;-57
2022/07/10 03:54:09;;;;;;;22.27;16.95;;;;;;;13.88;100.00;97436.50;10417951;28;20119;-57
2022/07/10 03:59:08;;;;;;;22.33;17.52;;;;;;;13.91;100.00;97432.09;10418220;28;20065;-57
2022/07/10 04:04:07;;;;;;;21.90;16.85;;;;;;;14.07;100.00;97430.00;10417368;28;20115;-57
2022/07/10 04:09:06;;;;;;;;;;;;;;;14.23;100.00;97425.34;10418021;28;20029;-57
2022/07/10 04:14:04;;;;;;;21.98;16.38;;;;;;;14.35;100.00;97435.50;10417614;28;19951;-57
2022/07/10 04:19:03;;;;;;;21.33;16.63;;;;;;;14.55;100.00;97439.47;10417528;28;20020;-57
2022/07/10 04:24:03;;;;;;;20.17;14.73;;;;;;;14.70;100.00;97410.41;10416969;28;20443;-57
2022/07/10 04:29:02;;;;;;;21.17;16.00;;;;;;;14.76;100.00;97423.34;10414436;28;20068;-57
2022/07/10 04:34:01;;;;;;;;;;;;;;;14.77;100.00;97425.03;10413498;28;20031;-57
2022/07/10 04:39:00;;;;;;;16.13;12.82;;;;;;;14.81;100.00;97416.25;10413031;28;19955;-57
2022/07/10 04:43:59;;;;;;;15.35;12.90;;;;;;;15.01;99.94;97420.13;10414577;28;20083;-57
2022/07/10 04:48:58;;;;;;;;;;;;;;;15.28;99.02;97423.00;10420827;28;20028;-57
2022/07/10 04:53:56;;;;;;;17.65;14.13;;;;;;;15.64;98.32;97419.41;10421406;28;19958;-57
2022/07/10 04:58:55;;;;;;;;;;;;;;;16.00;97.08;97423.72;10422476;28;20351;-57
2022/07/10 05:03:54;;;;;;;17.30;13.10;;;;;;;16.25;95.40;97421.25;10421718;28;20010;-57
2022/07/10 05:08:54;;;;;;;17.90;11.68;;;;;;;16.37;93.71;97423.53;10420684;28;20075;-57
2022/07/10 05:13:53;;;;;;;17.52;12.75;;;;;;;16.62;93.11;97415.78;10394284;28;20518;-57
2022/07/10 05:18:53;;;;;;;15.18;12.25;;;;;;;16.88;92.22;97411.50;10379957;28;20013;-57
2022/07/10 05:23:52;;;;;;;15.75;12.48;;;;;;;16.92;88.50;97403.50;10379917;28;20080;-57
2022/07/10 05:28:51;;;;;;;15.70;12.07;;;;;;;16.86;89.38;97413.31;10364581;28;20073;-57
2022/07/10 05:33:50;;;;;;;13.65;11.88;;;;;;;16.93;88.76;97404.34;10297267;28;20029;-58
2022/07/10 05:38:49;;;;;;;13.63;12.10;;;;;;;17.08;88.97;97397.78;10296353;28;20038;-57
2022/07/10 05:43:48;;;;;;;12.43;10.43;;;;;;;17.22;87.80;97400.78;10328076;28;20065;-58
2022/07/10 05:48:47;;;;;;;18.60;11.90;;;;;;;17.46;87.31;97403.50;10335874;28;20091;-57
2022/07/10 05:53:46;;;;;;;15.32;11.88;;;;;;;17.60;86.83;97413.53;10337248;28;20033;-57
2022/07/10 05:58:45;;;;;;;14.85;11.50;;;;;;;17.44;85.39;97413.19;10335704;28;20117;-58
2022/07/10 06:03:45;;;;;;;12.73;11.38;;;;;;;17.23;85.84;97420.84;10336864;28;20083;-57
2022/07/10 06:08:45;;;;;;;12.98;11.65;;;;;;;17.08;86.44;97426.63;10336036;28;20569;-57
2022/07/10 06:13:44;;;;;;;14.00;11.30;;;;;;;16.97;87.93;97426.09;10315943;28;20144;-57
2022/07/10 06:18:43;;;;;;;12.80;11.38;;;;;;;17.16;87.88;97415.88;10296020;28;20034;-56
2022/07/10 06:23:41;;;;;;;12.27;10.55;;;;;;;17.37;86.90;97414.31;10295682;28;20537;-56
2022/07/10 06:28:40;;;;;;;12.85;11.35;;;;;;;17.47;86.13;97410.44;10298712;28;20556;-56
2022/07/10 06:33:39;;;;;;;15.43;12.77;;;;;;;17.34;86.53;97404.78;10296559;28;20444;-56
2022/07/10 06:38:38;;;;;;;13.02;11.52;;;;;;;17.28;87.16;97403.19;10297695;28;20077;-56
2022/07/10 06:43:37;;;;;;;14.73;12.48;;;;;;;17.46;87.16;97408.75;10318652;28;20048;-56
2022/07/10 06:48:39;;;;;;;14.13;12.63;;;;;;;17.77;87.05;97409.41;10338536;28;20080;-56
2022/07/10 06:53:38;;;;;;;13.75;12.10;;;;;;;18.10;86.53;97411.72;10337541;28;20509;-56
2022/07/10 06:58:37;;;;;;;17.15;11.82;;;;;;;18.26;84.58;97400.66;10321875;28;20073;-56
2022/07/10 07:03:36;;;;;;;17.38;11.93;;;;;;;18.29;84.98;97406.69;10297245;28;20033;-56
2022/07/10 07:08:36;;;;;;;13.38;11.02;;;;;;;18.61;84.47;97397.53;10303113;28;20116;-56
2022/07/10 07:13:35;;;;;;;12.20;10.63;;;;;;;19.11;81.96;97391.22;10337254;28;20084;-56
2022/07/10 07:18:35;;;;;;;10.90;9.73;;;;;;;19.51;81.29;97386.91;10337540;28;20039;-56
2022/07/10 07:23:34;;;;;;;12.15;9.95;;;;;;;19.98;80.88;97383.16;10336076;28;20084;-56
2022/07/10 07:28:33;;;;;;;10.75;8.15;;;;;;;20.30;76.58;97381.66;10333386;28;20041;-57
2022/07/10 07:33:32;;;;;;;7.93;6.40;;;;;;;20.63;75.70;97378.41;10333242;28;20080;-57
2022/07/10 07:38:31;;;;;;;10.73;6.35;;;;;;;20.94;71.68;97375.19;10332486;28;20046;-56
2022/07/10 07:43:30;;;;;;;9.13;5.93;;;;;;;21.19;69.74;97364.25;10332219;28;20409;-57
2022/07/10 07:48:29;;;;;;;9.30;5.07;;;;;;;21.39;67.33;97367.72;10332963;28;20124;-56
2022/07/10 07:53:28;;;;;;;6.22;5.05;;;;;;;21.76;65.08;97369.31;10332526;28;20052;-56
2022/07/10 07:58:27;;;;;;;5.90;4.70;;;;;;;21.96;59.45;97366.44;10332734;28;20048;-56
2022/07/10 08:03:26;;;;;;;5.60;4.85;;;;;;;22.19;58.10;97367.06;10332398;28;20075;-56
2022/07/10 08:08:25;;;;;;;6.82;4.22;;;;;;;22.33;57.59;97377.72;10332341;28;20038;-58
2022/07/10 08:13:23;;;;;;;6.20;5.03;;;;;;;22.43;54.54;97364.00;10331892;28;20467;-56
2022/07/10 08:18:22;;;;;;;9.70;5.38;;;;;;;22.55;55.37;97363.31;10331186;28;20128;-56
2022/07/10 08:23:21;;;;;;;7.10;4.55;;;;;;;22.52;54.25;97364.34;10330842;28;20254;-56
2022/07/10 08:28:20;;;;;;;6.05;4.30;;;;;;;22.65;53.02;97361.00;10330985;28;20035;-57
2022/07/10 08:33:20;;;;;;;5.00;4.22;;;;;;;22.54;51.67;97366.91;10331081;28;20069;-56
2022/07/10 08:38:19;;;;;;;8.30;4.47;;;;;;;22.55;52.67;97365.97;10331796;28;20092;-56
2022/07/10 08:43:18;;;;;;;4.65;4.15;;;;;;;22.51;51.54;97361.81;10332623;28;20057;-57
2022/07/10 08:48:23;;;;;;;4.72;4.25;;;;;;;22.44;51.54;97366.56;10333354;28;20030;-57
2022/07/10 08:53:32;;;;;;;6.05;4.57;;;;;;;22.87;52.60;97364.19;10332108;28;20672;-57
2022/07/10 08:58:32;;;;;;;5.63;4.55;;;;;;;23.27;48.70;97363.69;10332909;28;20057;-57
2022/07/10 09:03:31;;;;;;;6.13;4.30;;;;;;;23.59;47.62;97356.50;10333121;28;20061;-57
2022/07/10 09:08:35;;;;;;;4.93;3.92;;;;;;;23.55;45.63;97357.63;10313838;28;20033;-57
2022/07/10 09:13:48;;;;;;;5.72;4.00;;;;;;;23.82;45.22;97352.47;10330425;28;20076;-57
2022/07/10 09:18:47;;;;;;;9.48;4.05;;;;;;;23.79;44.72;97342.03;10329776;28;20411;-57
2022/07/10 09:23:47;;;;;;;4.43;3.80;;;;;;;23.72;45.10;97359.25;10329263;28;20103;-57
2022/07/10 09:28:52;;;;;;;5.68;3.60;;;;;;;23.66;45.52;97341.09;10328854;28;20069;-57
2022/07/10 09:33:51;;;;;;;4.72;3.58;;;;;;;23.89;45.18;97335.25;10333183;28;20073;-57
2022/07/10 09:38:52;;;;;;;4.28;3.45;;;;;;;24.30;44.29;97331.00;10337326;28;20122;-57
2022/07/10 09:44:02;;;;;;;5.82;3.25;;;;;;;24.53;41.96;97322.41;10336908;28;20065;-57
2022/07/10 09:49:07;;;;;;;7.13;3.15;;;;;;;24.57;40.14;97323.91;10335921;28;20083;-58
2022/07/10 09:54:08;;;;;;;4.75;2.90;;;;;;;24.35;39.85;97327.09;10336802;28;20084;-56
2022/07/10 09:59:10;;;;;;;2.80;2.60;;;;;;;24.09;40.65;97325.19;10336230;28;20061;-57
2022/07/10 10:04:10;;;;;;;4.72;2.95;;;;;;;24.08;39.92;97326.16;10324903;28;20074;-57
2022/07/10 10:09:18;;;;;;;3.53;3.20;;;;;;;24.48;39.98;97322.72;10316179;28;20550;-57
2022/07/10 10:14:19;;;;;;;3.47;2.72;;;;;;;24.64;38.22;97321.72;10323491;28;20076;-57
2022/07/10 10:24:41;;;;;;;4.13;2.88;;;;;;;24.94;37.47;97307.41;10337250;28;20144;-57
2022/07/10 10:29:40;;;;;;;5.03;3.10;;;;;;;24.63;37.01;97302.28;10335754;28;20119;-57
2022/07/10 10:34:42;;;;;;;3.83;2.70;;;;;;;24.72;38.01;97305.31;10336339;28;20321;-57
2022/07/10 10:39:59;;;;;;;3.28;2.88;;;;;;;25.02;37.99;97291.84;10335513;28;20100;-57
2022/07/10 10:45:23;;;;;;;2.85;2.58;;;;;;;25.15;37.81;97286.53;10334334;28;20088;-57
2022/07/10 10:50:49;;;;;;;3.70;2.60;;;;;;;25.03;37.02;97288.22;10335222;28;20481;-57
2022/07/10 10:56:04;;;;;;;3.78;3.15;;;;;;;24.70;37.48;97281.50;10320491;28;20457;-56
2022/07/10 11:01:05;;;;;;;2.92;2.60;;;;;;;24.67;37.34;97287.03;10326708;28;20064;-56
2022/07/10 11:06:04;;;;;;;2.92;2.60;;;;;;;24.98;36.76;97282.38;10317915;28;20493;-57
2022/07/10 11:11:31;;;;;;;3.13;2.30;;;;;;;25.51;36.27;97280.53;10317256;28;20080;-57
2022/07/10 11:16:32;;;;;;;2.65;2.45;;;;;;;25.77;34.65;97273.44;10328297;28;20068;-57
2022/07/10 11:21:47;;;;;;;4.00;2.30;;;;;;;25.89;34.65;97283.19;10334118;28;20100;-57
2022/07/10 11:26:58;;;;;;;2.63;2.28;;;;;;;25.39;35.82;97260.13;10335509;28;20076;-57
2022/07/10 11:31:57;;;;;;;2.83;2.13;;;;;;;25.17;36.73;97266.88;10337321;28;20056;-57
2022/07/10 11:36:56;;;;;;;5.32;2.42;;;;;;;25.14;36.16;97261.81;10337157;28;20064;-57
2022/07/10 11:41:55;;;;;;;3.15;2.80;;;;;;;25.16;36.46;97273.16;10336245;28;20112;-57
2022/07/10 11:46:55;;;;;;;2.65;2.20;;;;;;;25.10;34.98;97263.78;10336492;28;20127;-57
2022/07/10 11:52:01;;;;;;;4.90;2.20;;;;;;;25.25;35.81;97261.94;10336496;28;20520;-57
2022/07/10 11:57:06;;;;;;;3.83;2.47;;;;;;;25.36;35.51;97265.63;10333607;28;20073;-57
2022/07/10 12:02:06;;;;;;;2.63;2.22;;;;;;;25.65;36.37;97266.31;10335725;28;20477;-57
2022/07/10 12:07:05;;;;;;;2.63;2.30;;;;;;;25.77;35.86;97268.09;10335878;28;20069;-56
2022/07/10 12:12:06;;;;;;;3.40;2.10;;;;;;;26.06;35.10;97268.69;10372516;28;20029;-57
2022/07/10 12:17:16;;;;;;;3.22;2.55;;;;;;;26.18;34.92;97261.63;10375741;28;20028;-56
2022/07/10 12:22:15;;;;;;;2.63;2.42;;;;;;;25.99;35.35;97262.09;10376069;28;20044;-57
2022/07/10 12:27:40;;;;;;;4.43;2.47;;;;;;;25.98;35.13;97259.56;10373392;28;20114;-57
2022/07/10 12:32:39;;;;;;;2.40;2.20;;;;;;;25.94;33.67;97253.63;10349824;28;20081;-57
2022/07/10 12:37:49;;;;;;;3.67;2.65;;;;;;;26.22;34.59;97241.88;10332128;28;20088;-56
2022/07/10 12:42:48;;;;;;;4.28;2.40;;;;;;;26.27;34.39;97237.06;10330970;28;20081;-57
2022/07/10 12:47:49;;;;;;;4.22;2.33;;;;;;;25.77;34.43;97240.69;10330050;28;20045;-57
2022/07/10 12:52:48;;;;;;;3.70;2.42;;;;;;;25.40;35.42;97245.88;10332188;28;20084;-57
2022/07/10 12:57:53;;;;;;;4.10;2.00;;;;;;;24.99;36.07;97244.25;10330752;28;20080;-57
2022/07/10 13:03:06;;;;;;;3.17;2.13;;;;;;;24.77;37.03;97252.78;10330687;28;20072;-57
2022/07/10 13:08:16;;;;;;;3.05;2.47;;;;;;;24.52;36.92;97250.88;10335022;28;20503;-57
2022/07/10 13:13:15;;;;;;;5.45;2.35;;;;;;;24.69;36.01;97238.22;10338805;28;20103;-57
2022/07/10 13:18:17;;;;;;;6.25;2.28;;;;;;;24.89;36.32;97258.16;10337652;28;20072;-57
2022/07/10 13:23:20;;;;;;;2.60;2.40;;;;;;;25.29;36.36;97242.19;10338517;28;20084;-57
2022/07/10 13:28:20;;;;;;;5.88;2.50;;;;;;;25.88;34.86;97240.78;10338382;28;20081;-57
2022/07/10 13:33:19;;;;;;;4.00;2.47;;;;;;;26.45;35.32;97248.19;10338153;28;20080;-57
2022/07/10 13:38:18;;;;;;;3.50;2.60;;;;;;;26.91;38.58;97252.78;10337912;28;20084;-57
2022/07/10 13:43:19;;;;;;;2.53;2.25;;;;;;;26.96;39.79;97247.09;10337593;28;20513;-57
2022/07/10 13:48:18;;;;;;;3.45;2.83;;;;;;;26.94;41.44;97259.69;10337476;28;20081;-57
2022/07/10 13:53:17;;;;;;;4.15;2.50;;;;;;;27.00;40.08;97256.53;10337516;28;20469;-57
2022/07/10 13:58:17;;;;;;;3.22;2.60;;;;;;;26.84;41.40;97264.84;10336286;28;20076;-57
2022/07/10 14:03:16;;;;;;;2.83;2.60;;;;;;;26.68;41.37;97264.25;10337019;28;20124;-57
2022/07/10 14:08:15;;;;;;;3.47;2.47;;;;;;;26.62;41.34;97265.56;10336563;28;20091;-57
2022/07/10 14:13:14;;;;;;;4.10;2.60;;;;;;;26.57;41.10;97268.56;10337100;28;20116;-57
2022/07/10 14:18:34;;;;;;;6.57;3.05;;;;;;;26.46;41.72;97255.19;10318832;28;20076;-57
2022/07/10 14:23:33;;;;;;;3.95;2.47;;;;;;;26.43;41.93;97243.94;10296138;28;20065;-57
2022/07/10 14:28:34;;;;;;;4.72;2.80;;;;;;;26.55;41.87;97251.84;10294247;28;20101;-57
2022/07/10 14:33:35;;;;;;;3.05;2.50;;;;;;;26.70;40.16;97257.84;10295847;28;20073;-57
2022/07/10 14:38:34;;;;;;;4.45;2.67;;;;;;;26.69;40.14;97245.50;10294869;28;20489;-56
2022/07/10 14:43:36;;;;;;;2.78;2.53;;;;;;;26.62;40.13;97246.91;10294849;28;20512;-55
2022/07/10 14:48:35;;;;;;;2.95;2.55;;;;;;;26.50;40.79;97259.31;10294636;28;20121;-56
2022/07/10 14:53:35;;;;;;;3.95;2.90;;;;;;;26.37;41.52;97247.91;10319052;28;20131;-56
2022/07/10 14:58:34;;;;;;;3.63;2.60;;;;;;;26.32;41.92;97247.38;10334557;28;20126;-55
2022/07/10 15:03:33;;;;;;;2.95;2.63;;;;;;;26.34;42.24;97250.78;10334143;28;20048;-56
2022/07/10 15:08:33;;;;;;;5.60;2.90;;;;;;;26.31;42.81;97256.31;10333581;28;20068;-56
2022/07/10 15:13:33;;;;;;;4.00;3.00;;;;;;;26.29;42.75;97255.56;10334239;28;20504;-56
2022/07/10 15:18:32;;;;;;;3.85;3.00;;;;;;;26.26;43.53;97258.47;10333797;28;20068;-56
2022/07/10 15:23:31;;;;;;;5.45;3.13;;;;;;;26.08;41.77;97255.28;10333669;28;20037;-56
2022/07/10 15:28:30;;;;;;;5.43;2.70;;;;;;;25.96;42.95;97265.00;10332647;28;20124;-56
2022/07/10 15:33:29;;;;;;;2.92;2.72;;;;;;;25.88;41.46;97270.88;10333942;28;20080;-56
2022/07/10 15:38:28;;;;;;;3.38;2.55;;;;;;;25.50;38.24;97263.75;10333369;28;20088;-56
2022/07/10 15:43:28;;;;;;;3.38;2.33;;;;;;;24.39;39.71;97287.97;10332054;28;20072;-56
2022/07/10 15:48:27;;;;;;;3.17;2.70;;;;;;;23.82;42.58;97283.59;10325422;28;20077;-56
2022/07/10 15:53:27;;;;;;;4.30;2.60;;;;;;;23.48;42.01;97290.09;10313199;28;20079;-56
2022/07/10 15:58:25;;;;;;;4.63;2.50;;;;;;;23.55;41.61;97302.00;10300174;28;20077;-56
2022/07/10 16:03:25;;;;;;;2.60;2.40;;;;;;;23.56;41.92;97304.59;10331650;28;20381;-56
2022/07/10 16:08:24;;;;;;;3.28;2.65;;;;;;;23.54;42.55;97305.63;10331844;28;20160;-56
2022/07/10 16:13:22;;;;;;;2.60;2.40;;;;;;;23.27;43.38;97305.44;10331524;28;20108;-56
2022/07/10 16:18:21;;;;;;;4.47;2.70;;;;;;;23.05;43.57;97301.41;10332068;28;20028;-56
2022/07/10 16:23:20;;;;;;;5.18;2.88;;;;;;;23.08;43.95;97310.97;10331296;28;20464;-56
2022/07/10 16:28:19;;;;;;;4.50;2.90;;;;;;;22.92;44.13;97321.59;10331490;28;20041;-56
2022/07/10 16:33:18;;;;;;;5.28;3.00;;;;;;;22.74;44.83;97319.06;10330640;28;20474;-56
2022/07/10 16:38:18;;;;;;;3.28;2.90;;;;;;;22.55;45.32;97340.38;10328786;28;20057;-56
2022/07/10 16:43:17;;;;;;;3.85;3.10;;;;;;;22.21;47.04;97333.47;10320910;28;20077;-56
2022/07/10 16:48:16;;;;;;;4.63;3.22;;;;;;;22.10;47.06;97341.13;10330829;28;20077;-56
2022/07/10 16:53:16;;;;;;;4.03;2.97;;;;;;;21.79;48.13;97334.81;10330912;28;20045;-56
2022/07/10 16:58:15;;;;;;;6.40;3.65;;;;;;;21.78;48.52;97341.03;10329991;28;20099;-56
2022/07/10 17:03:14;;;;;;;6.13;3.50;;;;;;;21.78;48.56;97351.59;10330619;28;20109;-56
2022/07/10 17:08:14;;;;;;;5.47;3.92;;;;;;;21.81;48.68;97345.31;10330619;28;20076;-56
2022/07/10 17:13:13;;;;;;;7.32;3.92;;;;;;;21.74;48.88;97352.69;10312954;28;20078;-56
2022/07/10 17:18:12;;;;;;;4.72;4.25;;;;;;;21.81;49.41;97354.06;10326201;28;20073;-56
2022/07/10 17:23:12;;;;;;;5.82;4.20;;;;;;;21.91;50.83;97362.34;10330706;28;20037;-56
2022/07/10 17:28:12;;;;;;;7.85;4.18;;;;;;;21.90;51.33;97377.38;10331507;28;20160;-56
2022/07/10 17:33:11;;;;;;;5.95;4.32;;;;;;;21.85;51.27;97367.94;10331472;28;20504;-56
2022/07/10 17:38:10;;;;;;;9.38;4.68;;;;;;;21.84;52.99;97369.75;10329839;28;20080;-56
2022/07/10 17:43:09;;;;;;;5.65;4.53;;;;;;;21.59;53.38;97386.00;10350806;28;20131;-56
2022/07/10 17:48:08;;;;;;;7.90;5.47;;;;;;;21.46;53.71;97383.16;10371628;28;20129;-57
2022/07/10 17:53:07;;;;;;;8.45;5.70;;;;;;;21.34;54.39;97384.63;10371656;28;20060;-55
2022/07/10 17:58:06;;;;;;;8.07;5.22;;;;;;;21.21;55.57;97386.16;10332293;28;20029;-55
2022/07/10 18:03:05;;;;;;;6.43;5.15;;;;;;;21.18;55.79;97404.75;10337076;28;20492;-55
2022/07/10 18:08:07;;;;;;;7.13;5.22;;;;;;;21.12;56.38;97391.88;10340650;28;20412;-55
2022/07/10 18:13:06;;;;;;;12.20;6.97;;;;;;;21.04;57.14;97397.53;10377401;28;20077;-55
2022/07/10 18:18:05;;;;;;;7.10;5.13;;;;;;;20.95;57.90;97418.22;10377995;28;20068;-56
2022/07/10 18:23:06;;;;;;;9.00;6.18;;;;;;;20.67;59.21;97416.91;10376912;28;20029;-55
2022/07/10 18:28:05;;;;;;;8.75;5.65;;;;;;;20.61;59.30;97423.31;10376581;28;20080;-56
2022/07/10 18:38:21;;;;;;;7.13;5.22;;;;;;;20.41;60.85;97444.47;10376478;28;20084;-56
2022/07/10 18:43:20;;;;;;;8.48;5.15;;;;;;;20.41;61.61;97452.38;10375539;28;20045;-56
2022/07/10 18:48:19;;;;;;;9.45;5.10;;;;;;;20.40;61.77;97463.81;10336219;28;20117;-55
2022/07/10 18:53:19;;;;;;;10.05;6.03;;;;;;;20.38;62.19;97465.66;10335068;28;20121;-56
2022/07/10 18:58:18;;;;;;;7.78;5.90;;;;;;;20.31;62.48;97474.78;10332777;28;20072;-55
2022/07/10 19:03:17;;;;;;;8.30;5.95;;;;;;;20.19;62.61;97487.56;10334458;28;20076;-56
2022/07/10 19:08:16;;;;;;;6.45;5.75;;;;;;;20.07;62.43;97483.69;10339877;28;20036;-56
2022/07/10 19:13:15;;;;;;;12.20;5.90;;;;;;;19.94;62.41;97479.88;10375158;28;20032;-56
2022/07/10 19:18:14;;;;;;;7.47;6.32;;;;;;;19.91;63.01;97500.19;10375328;28;20029;-55
2022/07/10 19:23:13;;;;;;;9.13;6.18;;;;;;;19.78;63.30;97503.34;10375070;28;20067;-55
2022/07/10 19:28:12;;;;;;;9.27;6.38;;;;;;;19.71;63.88;97511.59;10374389;28;20029;-56
2022/07/10 19:33:11;;;;;;;8.05;6.60;;;;;;;19.54;64.20;97507.00;10374504;28;20068;-56
2022/07/10 19:38:10;;;;;;;6.82;6.13;;;;;;;19.51;64.26;97510.63;10374710;28;20484;-55
2022/07/10 19:43:09;;;;;;;8.43;5.85;;;;;;;19.47;64.83;97516.06;10374050;28;20515;-55
2022/07/10 19:48:08;;;;;;;5.97;5.32;;;;;;;19.40;65.42;97521.56;10374018;28;20043;-55
2022/07/10 19:53:08;;;;;;;9.43;6.22;;;;;;;19.35;65.28;97525.31;10355658;28;20073;-55
2022/07/10 19:58:07;;;;;;;8.05;5.90;;;;;;;19.33;65.97;97527.13;10290364;28;20124;-55
2022/07/10 20:03:06;;;;;;;7.45;6.20;;;;;;;19.28;66.07;97529.09;10325734;28;20029;-55
2022/07/10 20:08:05;;;;;;;9.73;6.20;;;;;;;19.23;66.58;97531.91;10332014;28;20080;-55
2022/07/10 20:13:04;;;;;;;6.63;5.88;;;;;;;19.21;67.05;97531.13;10331974;28;20049;-55
2022/07/10 20:18:03;;;;;;;7.45;5.45;;;;;;;19.17;66.88;97526.88;10331265;28;20124;-55
2022/07/10 20:23:02;;;;;;;10.18;6.53;;;;;;;19.15;66.33;97528.72;10331838;28;20122;-55
2022/07/10 20:28:01;;;;;;;8.60;6.32;;;;;;;19.08;66.56;97535.13;10332068;28;20386;-55
2022/07/10 20:33:00;;;;;;;9.27;5.85;;;;;;;19.05;66.46;97535.25;10328809;28;20079;-55
2022/07/10 20:37:59;;;;;;;7.03;5.65;;;;;;;19.01;66.40;97537.13;10291639;28;20088;-55
2022/07/10 20:43:00;;;;;;;6.75;5.40;;;;;;;18.94;66.80;97541.75;10291457;28;20076;-55
2022/07/10 20:47:59;;;;;;;8.13;5.75;;;;;;;18.84;67.05;97535.16;10290387;28;20081;-55
2022/07/10 20:52:58;;;;;;;6.80;5.10;;;;;;;18.73;66.92;97553.94;10291444;28;20113;-55
2022/07/10 20:57:58;;;;;;;6.45;5.43;;;;;;;18.61;66.89;97544.72;10290526;28;20065;-56
2022/07/10 21:02:58;;;;;;;5.95;4.93;;;;;;;18.47;67.14;97552.25;10290909;28;20467;-55
2022/07/10 21:07:57;;;;;;;7.22;5.00;;;;;;;18.34;67.28;97550.97;10293093;28;20408;-55
2022/07/10 21:12:55;;;;;;;6.88;4.65;;;;;;;18.16;67.27;97553.31;10331202;28;20036;-55
2022/07/10 21:17:56;;;;;;;8.18;5.07;;;;;;;17.96;67.55;97548.78;10330187;28;20124;-55
2022/07/10 21:22:55;;;;;;;6.47;5.15;;;;;;;17.88;67.90;97555.19;10330785;28;20080;-55
2022/07/10 21:27:55;;;;;;;5.50;4.70;;;;;;;17.77;68.19;97543.25;10332021;28;20080;-56
2022/07/10 21:32:54;;;;;;;6.03;5.03;;;;;;;17.63;68.81;97553.31;10338276;28;20092;-55
2022/07/10 21:37:53;;;;;;;7.88;5.13;;;;;;;17.47;69.10;97555.59;10338198;28;20077;-55
2022/07/10 21:42:55;;;;;;;4.78;4.32;;;;;;;17.30;69.29;97556.13;10338173;28;20538;-55
2022/07/10 21:47:54;;;;;;;8.20;4.82;;;;;;;17.18;69.61;97555.66;10337460;28;20069;-55
2022/07/10 21:52:53;;;;;;;6.10;4.20;;;;;;;17.03;70.23;97559.59;10338222;28;20079;-55
2022/07/10 21:57:52;;;;;;;5.93;4.40;;;;;;;16.71;70.67;97536.00;10337457;28;20057;-55
2022/07/10 22:02:52;;;;;;;4.93;4.07;;;;;;;16.73;71.17;97564.81;10335827;28;20527;-55
2022/07/10 22:07:51;;;;;;;6.20;5.00;;;;;;;16.67;71.66;97575.44;10336253;28;20072;-55
2022/07/10 22:12:50;;;;;;;8.60;4.97;;;;;;;16.59;72.05;97564.34;10336680;28;20064;-55
2022/07/10 22:17:49;;;;;;;6.03;5.18;;;;;;;16.53;73.06;97573.22;10333702;28;20076;-55
2022/07/10 22:22:48;;;;;;;8.15;6.00;;;;;;;16.47;73.09;97569.00;10335526;28;20576;-55
2022/07/10 22:27:47;;;;;;;6.45;5.13;;;;;;;16.44;73.55;97568.22;10335827;28;20580;-55
2022/07/10 22:32:46;;;;;;;7.88;4.80;;;;;;;16.38;73.39;97564.03;10336411;28;20068;-55
2022/07/10 22:37:45;;;;;;;;;;;;;;;16.27;73.34;97556.44;10336037;28;20124;-55
2022/07/10 22:42:44;;;;;;;4.17;3.73;;;;;;;16.19;72.96;97558.44;10335052;28;19909;-55
2022/07/10 22:47:43;;;;;;;;;;;;;;;16.14;72.71;97564.66;10335471;28;20049;-55
2022/07/10 22:52:42;;;;;;;4.97;3.40;;;;;;;16.07;72.30;97558.75;10335320;28;19909;-55
2022/07/10 22:57:40;;;;;;;;;;;;;;;15.93;72.47;97561.72;10336204;28;20035;-55
2022/07/10 23:02:39;;;;;;;5.40;3.78;;;;;;;15.85;72.42;97558.44;10335556;28;19912;-55
2022/07/10 23:07:38;;;;;;;;;;;;;;;15.79;73.84;97561.22;10334614;28;20040;-55
2022/07/10 23:12:37;;;;;;;6.65;4.38;;;;;;;15.68;74.35;97575.38;10335509;28;20334;-55
2022/07/10 23:17:36;;;;;;;;;;;;;;;15.33;79.16;97591.03;10334999;28;20041;-55
2022/07/10 23:22:35;;;;;;;7.20;6.00;;;;;;;15.18;79.78;97584.41;10334463;28;19991;-55
2022/07/10 23:27:35;;;;;;;;;;;;;;;15.09;80.34;97588.09;10334553;28;20338;-55
2022/07/10 23:32:34;;;;;;;6.78;5.50;;;;;;;14.80;81.78;97592.19;10333862;28;20396;-55